Portageville, NY (14536)

3:50 PM EDT on March 26, 2015 (GMT -0400)
Southview Farms | Change Station
CLOSE
Current Station
Personal Weather Station
Location: Castile, NY
Elevation: 1417 ft
Nearby Weather Stations

Elev 1417 ft 42.64 °N, 78.01 °W | Updated 36 seconds ago

Snow
Snow
33.7 °F
Feels Like 34 °F
N
0.0
Wind Variable Wind from SE

Today
High -- | Low -- °F
--% Chance of Precip.
Yesterday
High -- | Low -- °F
Precip. -- in
7:05 AM 7:31 PM
Waxing Crescent, 45% visible
Pressure 29.76 in
Visibility 3.0 miles
Clouds Few 300 ft
Overcast 2200 ft
Windchill 34 °F
Dew Point 32 °F
Humidity 94%
Rainfall 0.32 in
Snow Depth Not available.
UV 1 out of 12
Pollen .60 out of 12
Air Quality Not available.
Flu Activity Not available.
SPECI KDSV 261944Z AUTO 00000KT 3SM -RA BR FEW003 OVC022 02/01 A2976 RMK AO2 RAB22SNE22 P0003 T00170006

More Conditions Fewer Conditions

Pressure 29.76 in
Visibility 3.0 miles
Clouds Few 300 ft
Overcast 2200 ft
Windchill 34 °F
Dew Point 32 °F
Humidity 94%
Rainfall 0.32 in
Snow Depth Not available.
UV 1 out of 12
Pollen .60 out of 12
Air Quality Not available.
Flu Activity Not available.
SPECI KDSV 261944Z AUTO 00000KT 3SM -RA BR FEW003 OVC022 02/01 A2976 RMK AO2 RAB22SNE22 P0003 T00170006

More Conditions Fewer Conditions

10-Day Weather Forecast

Almanac

Astronomy

Mar. 26, 2015 Rise Set
Actual Time
Civil Twilight
Nautical Twilight
Astronomical Twilight
Moon
Length of Visible Light
Length of Day
Tomorrow will be .
, % of the Moon is Illuminated

Today's Extremes

State Highs State Lows

Community

WunderPhotos

Upload Photos

1,808,607 photos uploaded!

WunderBlogs® & News

Nearby

Air Quality

  Air Quality AQ Index Pollutant
Not available.

Snow Depth

Station Depth Elevation

Earthquake Activity

City Distance Mag. Time & Date
Minimum magnitude displayed is 2.5.

Coastal Water Temperatures

Place Temperature

Stations

Nearby Weather Stations

Station Location Temp. Windchill Dew Point Humidity Wind Precip. Elev Updated Type